sensor_id;sensor_type;location;lat;lon;timestamp;temperature;humidity
18577;DHT22;9418;52.694;13.294;2024-01-15T00:00:50;1.60;99.90
18577;DHT22;9418;52.694;13.294;2024-01-15T00:03:16;1.60;99.90
18577;DHT22;9418;52.694;13.294;2024-01-15T00:05:44;1.60;99.90
18577;DHT22;9418;52.694;13.294;2024-01-15T00:08:11;1.60;99.90
18577;DHT22;9418;52.694;13.294;2024-01-15T00:10:37;1.60;99.90
18577;DHT22;9418;52.694;13.294;2024-01-15T00:13:05;1.60;99.90
18577;DHT22;9418;52.694;13.294;2024-01-15T00:15:32;1.60;99.90
18577;DHT22;9418;52.694;13.294;2024-01-15T00:17:58;1.60;99.90
18577;DHT22;9418;52.694;13.294;2024-01-15T00:20:25;1.50;99.90
18577;DHT22;9418;52.694;13.294;2024-01-15T00:22:53;1.60;99.90
18577;DHT22;9418;52.694;13.294;2024-01-15T00:25:19;1.60;99.90
18577;DHT22;9418;52.694;13.294;2024-01-15T00:27:46;1.60;99.90
18577;DHT22;9418;52.694;13.294;2024-01-15T00:30:13;1.60;99.90
18577;DHT22;9418;52.694;13.294;2024-01-15T00:32:40;1.60;99.90
18577;DHT22;9418;52.694;13.294;2024-01-15T00:35:07;1.50;99.90
18577;DHT22;9418;52.694;13.294;2024-01-15T00:37:33;1.50;99.90
18577;DHT22;9418;52.694;13.294;2024-01-15T00:40:02;1.50;99.90
18577;DHT22;9418;52.694;13.294;2024-01-15T00:42:28;1.50;99.90
18577;DHT22;9418;52.694;13.294;2024-01-15T00:44:55;1.50;99.90
18577;DHT22;9418;52.694;13.294;2024-01-15T00:47:21;1.50;99.90
18577;DHT22;9418;52.694;13.294;2024-01-15T00:49:48;1.50;99.90
18577;DHT22;9418;52.694;13.294;2024-01-15T00:52:14;1.60;99.90
18577;DHT22;9418;52.694;13.294;2024-01-15T00:54:41;1.60;99.90
18577;DHT22;9418;52.694;13.294;2024-01-15T00:57:09;1.60;99.90
18577;DHT22;9418;52.694;13.294;2024-01-15T00:59:35;1.60;99.90
18577;DHT22;9418;52.694;13.294;2024-01-15T01:02:02;1.50;99.90
18577;DHT22;9418;52.694;13.294;2024-01-15T01:04:29;1.50;99.90
18577;DHT22;9418;52.694;13.294;2024-01-15T01:06:56;1.50;96.10
18577;DHT22;9418;52.694;13.294;2024-01-15T01:09:22;1.50;93.30
18577;DHT22;9418;52.694;13.294;2024-01-15T01:11:49;1.40;86.90
18577;DHT22;9418;52.694;13.294;2024-01-15T01:14:16;1.40;81.50
18577;DHT22;9418;52.694;13.294;2024-01-15T01:16:43;1.40;83.90
18577;DHT22;9418;52.694;13.294;2024-01-15T01:19:10;1.40;77.30
18577;DHT22;9418;52.694;13.294;2024-01-15T01:21:36;1.40;76.60
18577;DHT22;9418;52.694;13.294;2024-01-15T01:24:03;1.40;78.10
18577;DHT22;9418;52.694;13.294;2024-01-15T01:26:30;1.30;76.10
18577;DHT22;9418;52.694;13.294;2024-01-15T01:28:56;1.40;78.40
18577;DHT22;9418;52.694;13.294;2024-01-15T01:31:24;1.40;76.70
18577;DHT22;9418;52.694;13.294;2024-01-15T01:33:51;1.30;81.70
18577;DHT22;9418;52.694;13.294;2024-01-15T01:36:18;1.40;86.60
18577;DHT22;9418;52.694;13.294;2024-01-15T01:38:44;1.40;87.50
18577;DHT22;9418;52.694;13.294;2024-01-15T01:41:11;1.30;92.10
18577;DHT22;9418;52.694;13.294;2024-01-15T01:43:38;1.40;99.90
18577;DHT22;9418;52.694;13.294;2024-01-15T01:46:05;1.40;99.90
18577;DHT22;9418;52.694;13.294;2024-01-15T01:48:34;1.40;99.90
18577;DHT22;9418;52.694;13.294;2024-01-15T01:51:02;1.40;99.90
18577;DHT22;9418;52.694;13.294;2024-01-15T01:53:30;1.40;99.90
18577;DHT22;9418;52.694;13.294;2024-01-15T01:55:58;1.40;99.90
18577;DHT22;9418;52.694;13.294;2024-01-15T01:58:25;1.40;99.90
18577;DHT22;9418;52.694;13.294;2024-01-15T02:00:53;1.40;99.90
18577;DHT22;9418;52.694;13.294;2024-01-15T02:03:19;1.40;99.90
18577;DHT22;9418;52.694;13.294;2024-01-15T02:05:49;1.40;99.90
18577;DHT22;9418;52.694;13.294;2024-01-15T02:08:15;1.30;99.90
18577;DHT22;9418;52.694;13.294;2024-01-15T02:10:42;1.30;99.90
18577;DHT22;9418;52.694;13.294;2024-01-15T02:13:09;1.30;99.90
18577;DHT22;9418;52.694;13.294;2024-01-15T02:15:35;1.30;99.90
18577;DHT22;9418;52.694;13.294;2024-01-15T02:18:03;1.30;99.90
18577;DHT22;9418;52.694;13.294;2024-01-15T02:20:31;1.30;99.90
18577;DHT22;9418;52.694;13.294;2024-01-15T02:23:08;1.30;99.90
18577;DHT22;9418;52.694;13.294;2024-01-15T02:25:37;1.30;99.90
18577;DHT22;9418;52.694;13.294;2024-01-15T02:28:04;1.30;99.90
18577;DHT22;9418;52.694;13.294;2024-01-15T02:30:31;1.30;99.90
18577;DHT22;9418;52.694;13.294;2024-01-15T02:32:58;1.30;99.90
18577;DHT22;9418;52.694;13.294;2024-01-15T02:35:25;1.30;99.90
18577;DHT22;9418;52.694;13.294;2024-01-15T02:37:52;1.20;99.90
18577;DHT22;9418;52.694;13.294;2024-01-15T02:40:20;1.20;99.90
18577;DHT22;9418;52.694;13.294;2024-01-15T02:42:46;1.30;99.90
18577;DHT22;9418;52.694;13.294;2024-01-15T02:45:13;1.30;99.90
18577;DHT22;9418;52.694;13.294;2024-01-15T02:47:39;1.30;99.90
18577;DHT22;9418;52.694;13.294;2024-01-15T02:50:07;1.30;99.90
18577;DHT22;9418;52.694;13.294;2024-01-15T02:52:33;1.40;99.90
18577;DHT22;9418;52.694;13.294;2024-01-15T02:55:00;1.40;99.90
18577;DHT22;9418;52.694;13.294;2024-01-15T02:57:28;1.40;99.90
18577;DHT22;9418;52.694;13.294;2024-01-15T02:59:54;1.40;99.90
18577;DHT22;9418;52.694;13.294;2024-01-15T03:02:21;1.40;99.90
18577;DHT22;9418;52.694;13.294;2024-01-15T03:04:47;1.40;99.90
18577;DHT22;9418;52.694;13.294;2024-01-15T03:07:14;1.40;99.90
18577;DHT22;9418;52.694;13.294;2024-01-15T03:09:40;1.50;99.90
18577;DHT22;9418;52.694;13.294;2024-01-15T03:12:07;1.40;99.90
18577;DHT22;9418;52.694;13.294;2024-01-15T03:14:35;1.50;99.90
18577;DHT22;9418;52.694;13.294;2024-01-15T03:17:02;1.50;99.90
18577;DHT22;9418;52.694;13.294;2024-01-15T03:19:29;1.40;99.90
18577;DHT22;9418;52.694;13.294;2024-01-15T03:21:55;1.50;99.90
18577;DHT22;9418;52.694;13.294;2024-01-15T03:24:22;1.40;99.90
18577;DHT22;9418;52.694;13.294;2024-01-15T03:26:49;1.50;99.90
18577;DHT22;9418;52.694;13.294;2024-01-15T03:29:15;1.50;99.90
18577;DHT22;9418;52.694;13.294;2024-01-15T03:31:43;1.60;99.90
18577;DHT22;9418;52.694;13.294;2024-01-15T03:34:10;1.60;99.90
18577;DHT22;9418;52.694;13.294;2024-01-15T03:36:36;1.60;99.90
18577;DHT22;9418;52.694;13.294;2024-01-15T03:39:03;1.60;99.90
18577;DHT22;9418;52.694;13.294;2024-01-15T03:41:29;1.60;99.90
18577;DHT22;9418;52.694;13.294;2024-01-15T03:43:56;1.60;99.90
18577;DHT22;9418;52.694;13.294;2024-01-15T03:46:24;1.60;99.90
18577;DHT22;9418;52.694;13.294;2024-01-15T03:48:52;1.60;99.90
18577;DHT22;9418;52.694;13.294;2024-01-15T03:51:19;1.60;99.90
18577;DHT22;9418;52.694;13.294;2024-01-15T03:53:45;1.60;99.90
18577;DHT22;9418;52.694;13.294;2024-01-15T03:56:12;1.60;99.90
18577;DHT22;9418;52.694;13.294;2024-01-15T03:58:39;1.60;99.90
18577;DHT22;9418;52.694;13.294;2024-01-15T04:01:08;1.60;99.90
18577;DHT22;9418;52.694;13.294;2024-01-15T04:03:35;1.60;99.90
18577;DHT22;9418;52.694;13.294;2024-01-15T04:06:04;1.70;99.90
18577;DHT22;9418;52.694;13.294;2024-01-15T04:08:30;1.70;99.90
18577;DHT22;9418;52.694;13.294;2024-01-15T04:10:57;1.70;99.90
18577;DHT22;9418;52.694;13.294;2024-01-15T04:13:24;1.70;99.90
18577;DHT22;9418;52.694;13.294;2024-01-15T04:15:50;1.80;99.90
18577;DHT22;9418;52.694;13.294;2024-01-15T04:18:17;1.80;99.90
18577;DHT22;9418;52.694;13.294;2024-01-15T04:20:43;1.80;99.90
18577;DHT22;9418;52.694;13.294;2024-01-15T04:23:11;1.80;99.90
18577;DHT22;9418;52.694;13.294;2024-01-15T04:25:38;1.80;99.90
18577;DHT22;9418;52.694;13.294;2024-01-15T04:28:07;1.70;99.90
18577;DHT22;9418;52.694;13.294;2024-01-15T04:30:34;1.80;99.90
18577;DHT22;9418;52.694;13.294;2024-01-15T04:33:01;1.80;94.60
18577;DHT22;9418;52.694;13.294;2024-01-15T04:35:27;1.80;99.90
18577;DHT22;9418;52.694;13.294;2024-01-15T04:37:54;1.90;90.70
18577;DHT22;9418;52.694;13.294;2024-01-15T04:40:22;1.80;96.70
18577;DHT22;9418;52.694;13.294;2024-01-15T04:42:48;1.90;23.50
18577;DHT22;9418;52.694;13.294;2024-01-15T04:45:15;1.90;29.30
18577;DHT22;9418;52.694;13.294;2024-01-15T04:47:43;1.90;25.10
18577;DHT22;9418;52.694;13.294;2024-01-15T04:50:10;1.90;22.80
18577;DHT22;9418;52.694;13.294;2024-01-15T04:52:36;1.90;26.30
18577;DHT22;9418;52.694;13.294;2024-01-15T04:55:03;1.90;23.10
18577;DHT22;9418;52.694;13.294;2024-01-15T04:57:31;1.90;99.90
18577;DHT22;9418;52.694;13.294;2024-01-15T04:59:58;1.80;99.90
18577;DHT22;9418;52.694;13.294;2024-01-15T05:02:25;1.80;99.90
18577;DHT22;9418;52.694;13.294;2024-01-15T05:04:51;1.80;99.90
18577;DHT22;9418;52.694;13.294;2024-01-15T05:07:18;1.80;99.20
18577;DHT22;9418;52.694;13.294;2024-01-15T05:09:44;1.90;99.90
18577;DHT22;9418;52.694;13.294;2024-01-15T05:12:11;1.90;99.90
18577;DHT22;9418;52.694;13.294;2024-01-15T05:14:39;1.90;99.90
18577;DHT22;9418;52.694;13.294;2024-01-15T05:17:05;1.70;99.90
18577;DHT22;9418;52.694;13.294;2024-01-15T05:19:32;1.50;99.90
18577;DHT22;9418;52.694;13.294;2024-01-15T05:21:58;1.40;99.90
18577;DHT22;9418;52.694;13.294;2024-01-15T05:24:25;1.30;99.90
18577;DHT22;9418;52.694;13.294;2024-01-15T05:26:52;1.30;99.90
18577;DHT22;9418;52.694;13.294;2024-01-15T05:29:18;1.40;99.90
18577;DHT22;9418;52.694;13.294;2024-01-15T05:31:46;1.40;99.90
18577;DHT22;9418;52.694;13.294;2024-01-15T05:34:13;1.40;99.90
18577;DHT22;9418;52.694;13.294;2024-01-15T05:36:39;1.50;99.90
18577;DHT22;9418;52.694;13.294;2024-01-15T05:39:06;1.60;99.90
18577;DHT22;9418;52.694;13.294;2024-01-15T05:41:32;1.50;99.90
18577;DHT22;9418;52.694;13.294;2024-01-15T05:43:59;1.60;99.90
18577;DHT22;9418;52.694;13.294;2024-01-15T05:46:26;1.70;99.90
18577;DHT22;9418;52.694;13.294;2024-01-15T05:48:53;1.70;99.90
18577;DHT22;9418;52.694;13.294;2024-01-15T05:51:20;1.70;99.90
18577;DHT22;9418;52.694;13.294;2024-01-15T05:53:47;1.70;99.90
18577;DHT22;9418;52.694;13.294;2024-01-15T05:56:13;1.70;99.90
18577;DHT22;9418;52.694;13.294;2024-01-15T05:58:40;1.70;99.90
18577;DHT22;9418;52.694;13.294;2024-01-15T06:01:06;1.70;99.90
18577;DHT22;9418;52.694;13.294;2024-01-15T06:03:33;1.70;99.90
18577;DHT22;9418;52.694;13.294;2024-01-15T06:06:01;1.70;99.90
18577;DHT22;9418;52.694;13.294;2024-01-15T06:08:28;1.70;99.90
18577;DHT22;9418;52.694;13.294;2024-01-15T06:10:56;1.70;99.90
18577;DHT22;9418;52.694;13.294;2024-01-15T06:13:22;1.80;99.90
18577;DHT22;9418;52.694;13.294;2024-01-15T06:15:49;1.80;99.90
18577;DHT22;9418;52.694;13.294;2024-01-15T06:18:15;1.90;99.90
18577;DHT22;9418;52.694;13.294;2024-01-15T06:20:42;1.80;99.90
18577;DHT22;9418;52.694;13.294;2024-01-15T06:23:10;1.90;99.90
18577;DHT22;9418;52.694;13.294;2024-01-15T06:25:37;1.90;99.90
18577;DHT22;9418;52.694;13.294;2024-01-15T06:28:04;1.90;99.90
18577;DHT22;9418;52.694;13.294;2024-01-15T06:30:31;1.90;99.90
18577;DHT22;9418;52.694;13.294;2024-01-15T06:32:57;1.90;99.90
18577;DHT22;9418;52.694;13.294;2024-01-15T06:35:24;1.80;99.90
18577;DHT22;9418;52.694;13.294;2024-01-15T06:37:50;1.90;99.90
18577;DHT22;9418;52.694;13.294;2024-01-15T06:40:18;1.80;99.90
18577;DHT22;9418;52.694;13.294;2024-01-15T06:42:45;1.80;99.90
18577;DHT22;9418;52.694;13.294;2024-01-15T06:45:11;1.90;99.90
18577;DHT22;9418;52.694;13.294;2024-01-15T06:47:38;1.90;99.90
18577;DHT22;9418;52.694;13.294;2024-01-15T06:50:05;1.80;99.90
18577;DHT22;9418;52.694;13.294;2024-01-15T06:52:32;1.80;99.90
18577;DHT22;9418;52.694;13.294;2024-01-15T06:54:59;1.80;99.90
18577;DHT22;9418;52.694;13.294;2024-01-15T06:57:27;1.80;99.90
18577;DHT22;9418;52.694;13.294;2024-01-15T06:59:53;1.80;99.90
18577;DHT22;9418;52.694;13.294;2024-01-15T07:02:20;1.90;99.90
18577;DHT22;9418;52.694;13.294;2024-01-15T07:04:46;1.90;99.90
18577;DHT22;9418;52.694;13.294;2024-01-15T07:07:13;1.70;99.90
18577;DHT22;9418;52.694;13.294;2024-01-15T07:09:40;1.50;99.90
18577;DHT22;9418;52.694;13.294;2024-01-15T07:12:07;1.30;99.90
18577;DHT22;9418;52.694;13.294;2024-01-15T07:14:35;1.20;99.90
18577;DHT22;9418;52.694;13.294;2024-01-15T07:17:02;1.20;99.90
18577;DHT22;9418;52.694;13.294;2024-01-15T07:19:28;1.20;99.90
18577;DHT22;9418;52.694;13.294;2024-01-15T07:21:55;1.20;99.90
18577;DHT22;9418;52.694;13.294;2024-01-15T07:24:22;1.20;94.60
18577;DHT22;9418;52.694;13.294;2024-01-15T07:26:48;1.10;90.50
18577;DHT22;9418;52.694;13.294;2024-01-15T07:29:15;1.00;82.90
18577;DHT22;9418;52.694;13.294;2024-01-15T07:31:47;1.00;73.00
18577;DHT22;9418;52.694;13.294;2024-01-15T07:34:14;1.10;70.90
18577;DHT22;9418;52.694;13.294;2024-01-15T07:36:41;1.10;68.90
18577;DHT22;9418;52.694;13.294;2024-01-15T07:39:07;1.10;68.20
18577;DHT22;9418;52.694;13.294;2024-01-15T07:41:34;1.00;67.40
18577;DHT22;9418;52.694;13.294;2024-01-15T07:44:01;1.10;67.80
18577;DHT22;9418;52.694;13.294;2024-01-15T07:46:28;1.10;69.80
18577;DHT22;9418;52.694;13.294;2024-01-15T07:48:56;1.20;88.70
18577;DHT22;9418;52.694;13.294;2024-01-15T07:51:23;1.40;99.90
18577;DHT22;9418;52.694;13.294;2024-01-15T07:53:50;1.50;99.90
18577;DHT22;9418;52.694;13.294;2024-01-15T07:56:17;1.60;99.90
18577;DHT22;9418;52.694;13.294;2024-01-15T07:58:43;1.60;99.90
18577;DHT22;9418;52.694;13.294;2024-01-15T08:01:10;1.50;99.90
18577;DHT22;9418;52.694;13.294;2024-01-15T08:03:37;1.50;99.90
18577;DHT22;9418;52.694;13.294;2024-01-15T08:06:05;1.50;99.90
18577;DHT22;9418;52.694;13.294;2024-01-15T08:08:35;1.50;99.90
18577;DHT22;9418;52.694;13.294;2024-01-15T08:11:01;1.60;99.90
18577;DHT22;9418;52.694;13.294;2024-01-15T08:13:28;1.60;99.90
18577;DHT22;9418;52.694;13.294;2024-01-15T08:15:56;1.70;99.90
18577;DHT22;9418;52.694;13.294;2024-01-15T08:18:22;1.70;99.90
18577;DHT22;9418;52.694;13.294;2024-01-15T08:20:49;1.80;99.90
18577;DHT22;9418;52.694;13.294;2024-01-15T08:23:18;1.80;99.90
18577;DHT22;9418;52.694;13.294;2024-01-15T08:25:45;1.70;99.90
18577;DHT22;9418;52.694;13.294;2024-01-15T08:28:11;1.70;99.90
18577;DHT22;9418;52.694;13.294;2024-01-15T08:30:38;1.80;99.90
18577;DHT22;9418;52.694;13.294;2024-01-15T08:33:05;1.90;99.90
18577;DHT22;9418;52.694;13.294;2024-01-15T08:35:31;1.80;99.90
18577;DHT22;9418;52.694;13.294;2024-01-15T08:37:58;1.90;99.90
18577;DHT22;9418;52.694;13.294;2024-01-15T08:40:26;1.90;99.90
18577;DHT22;9418;52.694;13.294;2024-01-15T08:42:52;1.90;99.90
18577;DHT22;9418;52.694;13.294;2024-01-15T08:45:19;1.90;99.90
18577;DHT22;9418;52.694;13.294;2024-01-15T08:47:47;1.90;99.90
18577;DHT22;9418;52.694;13.294;2024-01-15T08:50:13;2.00;99.90
18577;DHT22;9418;52.694;13.294;2024-01-15T08:52:40;2.00;99.90
18577;DHT22;9418;52.694;13.294;2024-01-15T08:55:07;2.00;99.90
18577;DHT22;9418;52.694;13.294;2024-01-15T08:57:35;2.10;99.90
18577;DHT22;9418;52.694;13.294;2024-01-15T09:00:02;2.00;99.90
18577;DHT22;9418;52.694;13.294;2024-01-15T09:02:29;1.90;99.90
18577;DHT22;9418;52.694;13.294;2024-01-15T09:04:56;1.90;99.90
18577;DHT22;9418;52.694;13.294;2024-01-15T09:07:22;1.80;99.90
18577;DHT22;9418;52.694;13.294;2024-01-15T09:09:50;1.80;99.90
18577;DHT22;9418;52.694;13.294;2024-01-15T09:12:17;1.90;99.90
18577;DHT22;9418;52.694;13.294;2024-01-15T09:14:47;1.80;99.90
18577;DHT22;9418;52.694;13.294;2024-01-15T09:17:14;1.80;99.90
18577;DHT22;9418;52.694;13.294;2024-01-15T09:19:41;1.80;99.90
18577;DHT22;9418;52.694;13.294;2024-01-15T09:22:08;1.90;99.90
18577;DHT22;9418;52.694;13.294;2024-01-15T09:24:34;2.00;99.90
18577;DHT22;9418;52.694;13.294;2024-01-15T09:27:01;2.00;99.90
18577;DHT22;9418;52.694;13.294;2024-01-15T09:29:28;2.10;99.90
18577;DHT22;9418;52.694;13.294;2024-01-15T09:31:56;2.10;99.90
18577;DHT22;9418;52.694;13.294;2024-01-15T09:34:23;2.20;99.90
18577;DHT22;9418;52.694;13.294;2024-01-15T09:36:49;2.20;99.90
18577;DHT22;9418;52.694;13.294;2024-01-15T09:39:16;2.20;99.90
18577;DHT22;9418;52.694;13.294;2024-01-15T09:41:43;2.20;99.90
18577;DHT22;9418;52.694;13.294;2024-01-15T09:44:10;2.30;99.90
18577;DHT22;9418;52.694;13.294;2024-01-15T09:46:38;2.30;92.70
18577;DHT22;9418;52.694;13.294;2024-01-15T09:49:06;2.30;96.20
18577;DHT22;9418;52.694;13.294;2024-01-15T09:51:35;2.30;83.10
18577;DHT22;9418;52.694;13.294;2024-01-15T09:54:02;2.40;81.70
18577;DHT22;9418;52.694;13.294;2024-01-15T09:56:30;2.40;93.40
18577;DHT22;9418;52.694;13.294;2024-01-15T09:58:57;2.60;95.00
18577;DHT22;9418;52.694;13.294;2024-01-15T10:01:24;2.70;28.80
18577;DHT22;9418;52.694;13.294;2024-01-15T10:03:51;2.70;35.20
18577;DHT22;9418;52.694;13.294;2024-01-15T10:06:21;2.60;34.00
18577;DHT22;9418;52.694;13.294;2024-01-15T10:08:49;2.60;31.00
18577;DHT22;9418;52.694;13.294;2024-01-15T10:11:16;2.60;28.80
18577;DHT22;9418;52.694;13.294;2024-01-15T10:13:43;2.60;31.20
18577;DHT22;9418;52.694;13.294;2024-01-15T10:16:10;2.60;37.10
18577;DHT22;9418;52.694;13.294;2024-01-15T10:18:37;2.60;38.50
18577;DHT22;9418;52.694;13.294;2024-01-15T10:21:06;2.60;42.00
18577;DHT22;9418;52.694;13.294;2024-01-15T10:23:34;2.60;36.00
18577;DHT22;9418;52.694;13.294;2024-01-15T10:26:01;2.50;36.70
18577;DHT22;9418;52.694;13.294;2024-01-15T10:28:28;2.50;38.70
18577;DHT22;9418;52.694;13.294;2024-01-15T10:30:57;2.50;39.50
18577;DHT22;9418;52.694;13.294;2024-01-15T10:33:24;2.50;41.90
18577;DHT22;9418;52.694;13.294;2024-01-15T10:35:53;2.50;40.70
18577;DHT22;9418;52.694;13.294;2024-01-15T10:38:20;2.50;41.90
18577;DHT22;9418;52.694;13.294;2024-01-15T10:40:51;2.60;37.50
18577;DHT22;9418;52.694;13.294;2024-01-15T10:43:18;2.60;45.80
18577;DHT22;9418;52.694;13.294;2024-01-15T10:45:45;2.70;53.20
18577;DHT22;9418;52.694;13.294;2024-01-15T10:48:12;2.70;54.60
18577;DHT22;9418;52.694;13.294;2024-01-15T10:50:38;2.70;54.20
18577;DHT22;9418;52.694;13.294;2024-01-15T10:53:05;2.80;51.60
18577;DHT22;9418;52.694;13.294;2024-01-15T10:55:33;2.80;53.90
18577;DHT22;9418;52.694;13.294;2024-01-15T10:58:03;2.80;65.30
18577;DHT22;9418;52.694;13.294;2024-01-15T11:00:30;2.90;66.00
18577;DHT22;9418;52.694;13.294;2024-01-15T11:02:57;2.80;64.20
18577;DHT22;9418;52.694;13.294;2024-01-15T11:05:23;2.80;65.00
18577;DHT22;9418;52.694;13.294;2024-01-15T11:07:55;2.90;62.70
18577;DHT22;9418;52.694;13.294;2024-01-15T11:10:41;2.80;65.90
18577;DHT22;9418;52.694;13.294;2024-01-15T11:13:10;2.70;60.90
18577;DHT22;9418;52.694;13.294;2024-01-15T11:15:54;2.70;60.50
18577;DHT22;9418;52.694;13.294;2024-01-15T11:18:21;2.80;60.90
18577;DHT22;9418;52.694;13.294;2024-01-15T11:21:22;2.80;59.90
18577;DHT22;9418;52.694;13.294;2024-01-15T11:23:51;2.80;58.60
18577;DHT22;9418;52.694;13.294;2024-01-15T11:26:35;2.70;63.20
18577;DHT22;9418;52.694;13.294;2024-01-15T11:29:04;2.80;59.80
18577;DHT22;9418;52.694;13.294;2024-01-15T11:32:01;2.80;61.70
18577;DHT22;9418;52.694;13.294;2024-01-15T11:34:53;2.80;60.80
18577;DHT22;9418;52.694;13.294;2024-01-15T11:37:20;2.80;61.80
18577;DHT22;9418;52.694;13.294;2024-01-15T11:39:51;2.70;56.80
18577;DHT22;9418;52.694;13.294;2024-01-15T11:42:18;2.70;57.60
18577;DHT22;9418;52.694;13.294;2024-01-15T11:44:47;2.80;58.80
18577;DHT22;9418;52.694;13.294;2024-01-15T11:47:14;2.80;55.60
18577;DHT22;9418;52.694;13.294;2024-01-15T11:50:07;2.80;63.60
18577;DHT22;9418;52.694;13.294;2024-01-15T11:52:37;2.70;51.30
18577;DHT22;9418;52.694;13.294;2024-01-15T11:55:11;2.70;37.20
18577;DHT22;9418;52.694;13.294;2024-01-15T11:57:45;2.60;20.50
18577;DHT22;9418;52.694;13.294;2024-01-15T12:00:14;2.50;99.90
18577;DHT22;9418;52.694;13.294;2024-01-15T12:02:41;2.30;99.90
18577;DHT22;9418;52.694;13.294;2024-01-15T12:05:08;2.30;99.90
18577;DHT22;9418;52.694;13.294;2024-01-15T12:07:35;2.30;99.90
18577;DHT22;9418;52.694;13.294;2024-01-15T12:10:02;2.20;99.90
18577;DHT22;9418;52.694;13.294;2024-01-15T12:12:49;2.30;99.90
18577;DHT22;9418;52.694;13.294;2024-01-15T12:15:21;2.20;99.90
18577;DHT22;9418;52.694;13.294;2024-01-15T12:17:48;2.20;99.90
18577;DHT22;9418;52.694;13.294;2024-01-15T12:20:14;2.20;99.90
18577;DHT22;9418;52.694;13.294;2024-01-15T12:22:42;2.20;99.90
18577;DHT22;9418;52.694;13.294;2024-01-15T12:25:09;2.10;99.90
18577;DHT22;9418;52.694;13.294;2024-01-15T12:27:35;2.10;99.90
18577;DHT22;9418;52.694;13.294;2024-01-15T12:30:03;2.10;99.90
18577;DHT22;9418;52.694;13.294;2024-01-15T12:32:31;2.10;99.90
18577;DHT22;9418;52.694;13.294;2024-01-15T12:34:57;2.10;99.90
18577;DHT22;9418;52.694;13.294;2024-01-15T12:37:24;2.10;99.90
18577;DHT22;9418;52.694;13.294;2024-01-15T12:39:52;2.10;99.90
18577;DHT22;9418;52.694;13.294;2024-01-15T12:42:21;2.10;99.90
18577;DHT22;9418;52.694;13.294;2024-01-15T12:44:47;2.10;99.90
18577;DHT22;9418;52.694;13.294;2024-01-15T12:47:14;2.10;99.90
18577;DHT22;9418;52.694;13.294;2024-01-15T12:49:46;2.20;99.90
18577;DHT22;9418;52.694;13.294;2024-01-15T12:52:13;2.20;99.90
18577;DHT22;9418;52.694;13.294;2024-01-15T12:54:39;2.20;99.90
18577;DHT22;9418;52.694;13.294;2024-01-15T12:57:06;2.20;99.90
18577;DHT22;9418;52.694;13.294;2024-01-15T12:59:33;2.30;99.90
18577;DHT22;9418;52.694;13.294;2024-01-15T13:02:00;2.20;99.90
18577;DHT22;9418;52.694;13.294;2024-01-15T13:04:26;2.20;99.90
18577;DHT22;9418;52.694;13.294;2024-01-15T13:06:54;2.20;99.90
18577;DHT22;9418;52.694;13.294;2024-01-15T13:09:21;2.20;99.90
18577;DHT22;9418;52.694;13.294;2024-01-15T13:11:48;2.10;99.90
18577;DHT22;9418;52.694;13.294;2024-01-15T13:14:14;2.20;99.90
18577;DHT22;9418;52.694;13.294;2024-01-15T13:16:41;2.20;99.90
18577;DHT22;9418;52.694;13.294;2024-01-15T13:19:08;2.20;99.90
18577;DHT22;9418;52.694;13.294;2024-01-15T13:21:36;2.10;99.90
18577;DHT22;9418;52.694;13.294;2024-01-15T13:24:04;2.10;99.90
18577;DHT22;9418;52.694;13.294;2024-01-15T13:26:31;2.20;99.90
18577;DHT22;9418;52.694;13.294;2024-01-15T13:28:58;2.20;99.90
18577;DHT22;9418;52.694;13.294;2024-01-15T13:31:25;2.10;99.90
18577;DHT22;9418;52.694;13.294;2024-01-15T13:33:51;2.20;99.90
18577;DHT22;9418;52.694;13.294;2024-01-15T13:36:18;2.20;99.90
18577;DHT22;9418;52.694;13.294;2024-01-15T13:38:46;2.20;99.90
18577;DHT22;9418;52.694;13.294;2024-01-15T13:41:15;2.10;99.90
18577;DHT22;9418;52.694;13.294;2024-01-15T13:43:43;2.10;99.90
18577;DHT22;9418;52.694;13.294;2024-01-15T13:46:10;2.10;99.90
18577;DHT22;9418;52.694;13.294;2024-01-15T13:48:37;2.10;99.90
18577;DHT22;9418;52.694;13.294;2024-01-15T13:51:04;2.10;99.90
18577;DHT22;9418;52.694;13.294;2024-01-15T13:53:30;2.00;99.90
18577;DHT22;9418;52.694;13.294;2024-01-15T13:55:57;2.00;99.90
18577;DHT22;9418;52.694;13.294;2024-01-15T13:58:25;2.00;99.90
18577;DHT22;9418;52.694;13.294;2024-01-15T14:00:52;2.00;99.90
18577;DHT22;9418;52.694;13.294;2024-01-15T14:03:18;1.90;99.90
18577;DHT22;9418;52.694;13.294;2024-01-15T14:05:45;1.80;99.90
18577;DHT22;9418;52.694;13.294;2024-01-15T14:08:12;1.80;99.90
18577;DHT22;9418;52.694;13.294;2024-01-15T14:10:38;1.90;99.90
18577;DHT22;9418;52.694;13.294;2024-01-15T14:13:05;1.80;99.90
18577;DHT22;9418;52.694;13.294;2024-01-15T14:15:33;1.90;99.90
18577;DHT22;9418;52.694;13.294;2024-01-15T14:17:59;1.90;99.90
18577;DHT22;9418;52.694;13.294;2024-01-15T14:20:26;1.90;99.90
18577;DHT22;9418;52.694;13.294;2024-01-15T14:22:53;1.90;99.90
18577;DHT22;9418;52.694;13.294;2024-01-15T14:25:20;1.90;99.90
18577;DHT22;9418;52.694;13.294;2024-01-15T14:27:47;1.90;99.90
18577;DHT22;9418;52.694;13.294;2024-01-15T14:30:14;1.90;99.90
18577;DHT22;9418;52.694;13.294;2024-01-15T14:32:42;1.90;99.90
18577;DHT22;9418;52.694;13.294;2024-01-15T14:35:10;1.80;99.90
18577;DHT22;9418;52.694;13.294;2024-01-15T14:37:36;1.80;99.90
18577;DHT22;9418;52.694;13.294;2024-01-15T14:40:04;1.80;99.90
18577;DHT22;9418;52.694;13.294;2024-01-15T14:42:33;1.80;99.90
18577;DHT22;9418;52.694;13.294;2024-01-15T14:44:59;1.80;99.90
18577;DHT22;9418;52.694;13.294;2024-01-15T14:47:26;1.80;99.90
18577;DHT22;9418;52.694;13.294;2024-01-15T14:49:54;1.80;99.90
18577;DHT22;9418;52.694;13.294;2024-01-15T14:52:22;1.80;99.90
18577;DHT22;9418;52.694;13.294;2024-01-15T14:54:48;1.80;99.90
18577;DHT22;9418;52.694;13.294;2024-01-15T14:57:15;1.70;99.90
18577;DHT22;9418;52.694;13.294;2024-01-15T14:59:42;1.80;99.90
18577;DHT22;9418;52.694;13.294;2024-01-15T15:02:08;1.80;99.90
18577;DHT22;9418;52.694;13.294;2024-01-15T15:04:35;1.80;99.90
18577;DHT22;9418;52.694;13.294;2024-01-15T15:07:03;1.80;99.90
18577;DHT22;9418;52.694;13.294;2024-01-15T15:09:31;1.70;99.90
18577;DHT22;9418;52.694;13.294;2024-01-15T15:11:58;1.70;99.90
18577;DHT22;9418;52.694;13.294;2024-01-15T15:14:24;1.60;99.90
18577;DHT22;9418;52.694;13.294;2024-01-15T15:16:51;1.60;99.90
18577;DHT22;9418;52.694;13.294;2024-01-15T15:19:17;1.60;99.90
18577;DHT22;9418;52.694;13.294;2024-01-15T15:21:44;1.50;99.90
18577;DHT22;9418;52.694;13.294;2024-01-15T15:24:12;1.40;99.90
18577;DHT22;9418;52.694;13.294;2024-01-15T15:26:39;1.40;99.90
18577;DHT22;9418;52.694;13.294;2024-01-15T15:29:05;1.40;99.90
18577;DHT22;9418;52.694;13.294;2024-01-15T15:31:32;1.40;99.90
18577;DHT22;9418;52.694;13.294;2024-01-15T15:33:59;1.50;99.90
18577;DHT22;9418;52.694;13.294;2024-01-15T15:36:25;1.50;99.90
18577;DHT22;9418;52.694;13.294;2024-01-15T15:38:52;1.50;99.90
18577;DHT22;9418;52.694;13.294;2024-01-15T15:41:22;1.40;99.90
18577;DHT22;9418;52.694;13.294;2024-01-15T15:43:51;1.40;99.90
18577;DHT22;9418;52.694;13.294;2024-01-15T15:46:17;1.40;99.90